Time;durP1;ratioP1;P1;durP2;ratioP2;P2;SDS_P1;SDS_P2;PMS_P1;PMS_P2;Temp;Humidity;BMP_temperature;BMP_pressure;BME280_temperature;BME280_humidity;BME280_pressure;Samples;Min_cycle;Max_cycle;Signal;HPM_P1;HPM_P2
2023/09/18 00:00:43;;;;;;;24.00;22.50;;;;;;;;;;5018923;28;20488;-87
2023/09/18 00:03:10;;;;;;;23.87;22.20;;;;;;;;;;5018442;28;21201;-87
2023/09/18 00:05:37;;;;;;;24.17;22.47;;;;;;;;;;5018366;28;20520;-87
2023/09/18 00:08:05;;;;;;;22.90;21.60;;;;;;;;;;5013084;28;20475;-88
2023/09/18 00:10:33;;;;;;;23.70;22.10;;;;;;;;;;4999150;28;20452;-87
2023/09/18 00:13:01;;;;;;;23.83;22.33;;;;;;;;;;4998761;28;20469;-87
2023/09/18 00:15:28;;;;;;;23.97;22.47;;;;;;;;;;4998878;28;20491;-87
2023/09/18 00:17:55;;;;;;;24.17;22.60;;;;;;;;;;4997759;28;20473;-88
2023/09/18 00:20:36;;;;;;;25.40;23.67;;;;;;;;;;4998893;28;20485;-88
2023/09/18 00:23:04;;;;;;;25.70;23.90;;;;;;;;;;5001427;28;20472;-88
2023/09/18 00:25:32;;;;;;;24.73;22.80;;;;;;;;;;4997993;28;21211;-87
2023/09/18 00:27:59;;;;;;;23.43;21.97;;;;;;;;;;4997820;28;20472;-87
2023/09/18 00:30:26;;;;;;;23.40;22.00;;;;;;;;;;4998866;28;20445;-88
2023/09/18 00:32:53;;;;;;;23.60;22.17;;;;;;;;;;4998302;28;20469;-88
2023/09/18 00:35:22;;;;;;;24.00;22.57;;;;;;;;;;4998266;28;20440;-88
2023/09/18 00:37:49;;;;;;;23.77;21.60;;;;;;;;;;4997501;28;20795;-88
2023/09/18 00:40:16;;;;;;;24.50;23.00;;;;;;;;;;4997176;28;20840;-88
2023/09/18 00:42:45;;;;;;;24.57;22.77;;;;;;;;;;4997182;28;20477;-88
2023/09/18 00:45:12;;;;;;;23.73;22.27;;;;;;;;;;4997044;28;20523;-88
2023/09/18 00:47:39;;;;;;;23.83;22.07;;;;;;;;;;4996554;28;20916;-88
2023/09/18 00:50:08;;;;;;;23.37;21.43;;;;;;;;;;5009379;28;20464;-88
2023/09/18 00:52:35;;;;;;;23.80;22.27;;;;;;;;;;5016437;28;20943;-88
2023/09/18 00:55:03;;;;;;;23.10;21.70;;;;;;;;;;5015259;28;20449;-88
2023/09/18 00:57:30;;;;;;;24.47;23.03;;;;;;;;;;5014297;28;20456;-88
2023/09/18 00:59:58;;;;;;;23.67;21.87;;;;;;;;;;5015930;28;20493;-88
2023/09/18 01:02:26;;;;;;;25.03;23.10;;;;;;;;;;5016568;28;20472;-88
2023/09/18 01:04:53;;;;;;;23.93;22.33;;;;;;;;;;5016425;28;20459;-88
2023/09/18 01:07:20;;;;;;;23.30;21.63;;;;;;;;;;5016475;28;20456;-88
2023/09/18 01:09:47;;;;;;;23.37;21.93;;;;;;;;;;5016144;28;20494;-88
2023/09/18 01:12:19;;;;;;;23.70;22.07;;;;;;;;;;5016163;28;20482;-88
2023/09/18 01:14:51;;;;;;;24.57;22.90;;;;;;;;;;5016347;28;20495;-88
2023/09/18 01:17:20;;;;;;;24.70;23.20;;;;;;;;;;4999571;28;20461;-88
2023/09/18 01:19:48;;;;;;;23.77;22.17;;;;;;;;;;5016967;28;20458;-88
2023/09/18 01:22:16;;;;;;;22.43;20.87;;;;;;;;;;5011771;28;20500;-88
2023/09/18 01:24:47;;;;;;;25.50;23.57;;;;;;;;;;5004694;28;20460;-88
2023/09/18 01:27:16;;;;;;;23.73;22.03;;;;;;;;;;5016149;28;20901;-88
2023/09/18 01:29:43;;;;;;;25.23;23.37;;;;;;;;;;5016894;28;20459;-88
2023/09/18 01:32:10;;;;;;;24.77;22.57;;;;;;;;;;5016545;28;20461;-88
2023/09/18 01:34:39;;;;;;;23.30;21.50;;;;;;;;;;5016252;28;20441;-88
2023/09/18 01:37:08;;;;;;;23.10;21.50;;;;;;;;;;5016715;28;20441;-86
2023/09/18 01:39:36;;;;;;;22.63;21.23;;;;;;;;;;5016994;28;20572;-87
2023/09/18 01:42:05;;;;;;;23.07;21.67;;;;;;;;;;5016592;28;20480;-88
2023/09/18 01:44:33;;;;;;;23.30;21.80;;;;;;;;;;5016714;28;20423;-88
2023/09/18 01:47:00;;;;;;;23.80;21.93;;;;;;;;;;5015517;28;20437;-88
2023/09/18 01:49:28;;;;;;;22.70;21.40;;;;;;;;;;5015367;28;20415;-88
2023/09/18 01:51:55;;;;;;;25.07;22.80;;;;;;;;;;5015631;28;20452;-88
2023/09/18 01:54:23;;;;;;;22.90;21.50;;;;;;;;;;5016042;28;20448;-88
2023/09/18 01:56:50;;;;;;;22.00;20.60;;;;;;;;;;5015384;28;20445;-88
2023/09/18 01:59:18;;;;;;;22.43;20.93;;;;;;;;;;5015611;28;21271;-88
2023/09/18 02:01:46;;;;;;;22.27;20.77;;;;;;;;;;5015282;28;20447;-88
2023/09/18 02:04:13;;;;;;;23.93;22.03;;;;;;;;;;5015355;28;20423;-87
2023/09/18 02:06:40;;;;;;;22.50;21.00;;;;;;;;;;5015278;28;20427;-89
2023/09/18 02:09:08;;;;;;;21.53;20.17;;;;;;;;;;5015468;28;20489;-89
2023/09/18 02:11:37;;;;;;;22.60;21.10;;;;;;;;;;5014416;28;20476;-89
2023/09/18 02:14:05;;;;;;;23.00;21.60;;;;;;;;;;5014928;28;20459;-89
2023/09/18 02:16:34;;;;;;;23.47;21.20;;;;;;;;;;5014722;28;20456;-89
2023/09/18 02:19:01;;;;;;;21.00;19.60;;;;;;;;;;5015372;28;20419;-89
2023/09/18 02:21:28;;;;;;;21.63;20.23;;;;;;;;;;5015123;28;20466;-89
2023/09/18 02:23:55;;;;;;;22.97;21.07;;;;;;;;;;5014772;28;20464;-89
2023/09/18 02:26:23;;;;;;;22.63;20.93;;;;;;;;;;5014588;28;20538;-89
2023/09/18 02:28:50;;;;;;;21.67;20.37;;;;;;;;;;5014661;28;20436;-89
2023/09/18 02:31:17;;;;;;;21.97;20.60;;;;;;;;;;5014658;28;20445;-88
2023/09/18 02:33:46;;;;;;;22.80;21.20;;;;;;;;;;5014612;28;20472;-88
2023/09/18 02:36:13;;;;;;;22.37;20.87;;;;;;;;;;5014200;28;20958;-88
2023/09/18 02:38:40;;;;;;;22.67;21.27;;;;;;;;;;5014628;28;20441;-89
2023/09/18 02:41:07;;;;;;;21.73;20.50;;;;;;;;;;5014384;28;20478;-89
2023/09/18 02:43:35;;;;;;;21.90;20.50;;;;;;;;;;5014584;28;20988;-88
2023/09/18 02:46:02;;;;;;;21.50;20.20;;;;;;;;;;5013939;28;20469;-89
2023/09/18 02:48:29;;;;;;;22.50;20.90;;;;;;;;;;5014486;28;20795;-89
2023/09/18 02:50:58;;;;;;;21.93;20.63;;;;;;;;;;5014258;28;20947;-89
2023/09/18 02:53:26;;;;;;;22.07;20.80;;;;;;;;;;5014602;28;20484;-89
2023/09/18 02:55:53;;;;;;;21.30;19.90;;;;;;;;;;5013858;28;20981;-89
2023/09/18 02:58:20;;;;;;;21.50;20.13;;;;;;;;;;5014416;28;20936;-89
2023/09/18 03:00:48;;;;;;;21.10;19.80;;;;;;;;;;5014241;28;20488;-89
2023/09/18 03:03:16;;;;;;;21.03;19.87;;;;;;;;;;5014316;28;20487;-89
2023/09/18 03:05:43;;;;;;;22.03;20.50;;;;;;;;;;5013608;28;20485;-88
2023/09/18 03:08:12;;;;;;;21.10;19.70;;;;;;;;;;5014810;28;20797;-89
2023/09/18 03:10:40;;;;;;;21.43;19.70;;;;;;;;;;5014617;28;20449;-89
2023/09/18 03:13:07;;;;;;;22.17;20.67;;;;;;;;;;5014199;28;20448;-89
2023/09/18 03:15:35;;;;;;;20.80;19.60;;;;;;;;;;5014252;28;20423;-88
2023/09/18 03:18:02;;;;;;;20.80;19.70;;;;;;;;;;5013979;28;20464;-89
2023/09/18 03:20:37;;;;;;;21.33;19.77;;;;;;;;;;5014178;28;20447;-90
2023/09/18 03:23:04;;;;;;;21.30;19.97;;;;;;;;;;5014349;28;20479;-89
2023/09/18 03:25:32;;;;;;;20.97;19.67;;;;;;;;;;5014053;28;20423;-89
2023/09/18 03:28:00;;;;;;;20.97;19.53;;;;;;;;;;5016468;28;20475;-89
2023/09/18 03:30:27;;;;;;;20.80;19.33;;;;;;;;;;5018415;28;20453;-89
2023/09/18 03:32:54;;;;;;;21.67;20.30;;;;;;;;;;5018341;28;21253;-89
2023/09/18 03:35:22;;;;;;;22.13;20.73;;;;;;;;;;5018192;28;20440;-89
2023/09/18 03:37:50;;;;;;;22.60;21.30;;;;;;;;;;5017365;28;20547;-89
2023/09/18 03:40:17;;;;;;;21.73;20.33;;;;;;;;;;5017877;28;21011;-89
2023/09/18 03:42:46;;;;;;;21.30;19.80;;;;;;;;;;5018157;28;20479;-88
2023/09/18 03:45:13;;;;;;;21.20;20.00;;;;;;;;;;5017678;28;20441;-89
2023/09/18 03:47:41;;;;;;;21.70;20.40;;;;;;;;;;5016961;28;20435;-89
2023/09/18 03:50:08;;;;;;;21.53;20.23;;;;;;;;;;5017720;28;20508;-89
2023/09/18 03:52:35;;;;;;;22.13;20.87;;;;;;;;;;5014587;28;20980;-89
2023/09/18 03:55:02;;;;;;;20.87;19.57;;;;;;;;;;4997926;28;20810;-89
2023/09/18 03:57:30;;;;;;;22.90;21.27;;;;;;;;;;4997289;28;20469;-89
2023/09/18 03:59:58;;;;;;;21.87;20.57;;;;;;;;;;4997792;28;20453;-88
2023/09/18 04:02:26;;;;;;;22.43;21.00;;;;;;;;;;4997447;28;20432;-89
2023/09/18 04:04:54;;;;;;;21.90;20.60;;;;;;;;;;4997397;28;20453;-89
2023/09/18 04:07:22;;;;;;;20.83;19.63;;;;;;;;;;4997213;28;20474;-88
2023/09/18 04:09:56;;;;;;;22.17;20.77;;;;;;;;;;4997832;28;20946;-89
2023/09/18 04:12:23;;;;;;;21.77;20.43;;;;;;;;;;4997537;28;20476;-89
2023/09/18 04:14:51;;;;;;;21.40;20.20;;;;;;;;;;4997937;28;20445;-88
2023/09/18 04:17:20;;;;;;;22.47;21.10;;;;;;;;;;4997105;28;20937;-89
2023/09/18 04:19:48;;;;;;;21.20;19.90;;;;;;;;;;4997865;28;20544;-88
2023/09/18 04:22:15;;;;;;;22.33;20.93;;;;;;;;;;4997037;28;20555;-89
2023/09/18 04:24:42;;;;;;;22.87;21.37;;;;;;;;;;4997469;28;20441;-89
2023/09/18 04:27:09;;;;;;;22.73;21.27;;;;;;;;;;4997052;28;20453;-89
2023/09/18 04:29:37;;;;;;;22.27;20.70;;;;;;;;;;4997567;28;20511;-88
2023/09/18 04:32:05;;;;;;;22.40;21.10;;;;;;;;;;4997022;28;20455;-89
2023/09/18 04:34:34;;;;;;;21.90;20.60;;;;;;;;;;4997291;28;20851;-89
2023/09/18 04:37:03;;;;;;;21.83;20.63;;;;;;;;;;4996985;28;20515;-88
2023/09/18 04:39:33;;;;;;;22.77;21.40;;;;;;;;;;4997246;28;20864;-88
2023/09/18 04:42:00;;;;;;;22.67;21.30;;;;;;;;;;4996591;28;20985;-89
2023/09/18 04:44:28;;;;;;;21.97;20.70;;;;;;;;;;4997458;28;20457;-89
2023/09/18 04:46:57;;;;;;;22.30;20.87;;;;;;;;;;4996943;28;20456;-89
2023/09/18 04:49:24;;;;;;;22.60;21.10;;;;;;;;;;4996902;28;20461;-89
2023/09/18 04:51:53;;;;;;;22.93;21.53;;;;;;;;;;4996737;28;20831;-89
2023/09/18 04:54:20;;;;;;;22.20;20.77;;;;;;;;;;4997075;28;21032;-89
2023/09/18 04:56:47;;;;;;;21.60;20.30;;;;;;;;;;4995949;28;20464;-89
2023/09/18 04:59:14;;;;;;;22.50;21.30;;;;;;;;;;4996389;28;20454;-89
2023/09/18 05:01:42;;;;;;;21.13;19.87;;;;;;;;;;4996305;28;20488;-89
2023/09/18 05:04:09;;;;;;;22.23;20.90;;;;;;;;;;4996381;28;20479;-89
2023/09/18 05:06:38;;;;;;;21.40;20.20;;;;;;;;;;4996680;28;20448;-88
2023/09/18 05:09:07;;;;;;;24.20;22.30;;;;;;;;;;4996711;28;20416;-90
2023/09/18 05:11:34;;;;;;;22.70;21.47;;;;;;;;;;4996505;28;20528;-89
2023/09/18 05:14:01;;;;;;;23.87;22.30;;;;;;;;;;4995690;28;20830;-89
2023/09/18 05:16:29;;;;;;;22.77;21.37;;;;;;;;;;4995411;28;20461;-89
2023/09/18 05:18:56;;;;;;;23.00;21.50;;;;;;;;;;4996412;28;20488;-89
2023/09/18 05:21:24;;;;;;;23.47;21.97;;;;;;;;;;4996071;28;20841;-89
2023/09/18 05:23:53;;;;;;;22.50;21.10;;;;;;;;;;4996002;28;20481;-89
2023/09/18 05:26:24;;;;;;;22.13;20.70;;;;;;;;;;4995883;28;20454;-89
2023/09/18 05:28:51;;;;;;;21.23;20.03;;;;;;;;;;4996344;28;20548;-88
2023/09/18 05:31:19;;;;;;;23.07;21.77;;;;;;;;;;4996019;28;21009;-88
2023/09/18 05:33:46;;;;;;;23.00;21.60;;;;;;;;;;4995803;28;20528;-89
2023/09/18 05:36:14;;;;;;;22.73;21.33;;;;;;;;;;4995924;28;20495;-89
2023/09/18 05:38:41;;;;;;;23.10;21.80;;;;;;;;;;4996049;28;20508;-89
2023/09/18 05:41:09;;;;;;;22.23;20.93;;;;;;;;;;4995844;28;20488;-88
2023/09/18 05:43:38;;;;;;;22.43;20.77;;;;;;;;;;4995133;28;20440;-89
2023/09/18 05:46:05;;;;;;;22.20;20.80;;;;;;;;;;4994291;28;20461;-89
2023/09/18 05:48:32;;;;;;;22.00;20.63;;;;;;;;;;4995132;28;20457;-89
2023/09/18 05:50:59;;;;;;;22.60;20.97;;;;;;;;;;4994697;28;20449;-89
2023/09/18 05:53:26;;;;;;;22.73;21.43;;;;;;;;;;4994830;28;20895;-89
2023/09/18 05:55:53;;;;;;;22.80;21.43;;;;;;;;;;4994191;28;20539;-89
2023/09/18 05:58:24;;;;;;;22.97;21.47;;;;;;;;;;4995112;28;20462;-89
2023/09/18 06:00:53;;;;;;;22.90;21.50;;;;;;;;;;4994884;28;20982;-88
2023/09/18 06:03:20;;;;;;;22.50;20.97;;;;;;;;;;4994401;28;20457;-89
2023/09/18 06:05:48;;;;;;;23.20;21.60;;;;;;;;;;4994206;28;20432;-89
2023/09/18 06:08:15;;;;;;;21.43;20.13;;;;;;;;;;4994187;28;20445;-88
2023/09/18 06:10:42;;;;;;;21.90;20.60;;;;;;;;;;4994607;28;20940;-89
2023/09/18 06:13:10;;;;;;;22.13;20.60;;;;;;;;;;4994819;28;20476;-89
2023/09/18 06:15:37;;;;;;;22.17;20.77;;;;;;;;;;4994290;28;20556;-89
2023/09/18 06:18:06;;;;;;;22.43;20.87;;;;;;;;;;4994409;28;20428;-89
2023/09/18 06:20:33;;;;;;;22.53;20.90;;;;;;;;;;4995810;28;20473;-89
2023/09/18 06:23:00;;;;;;;23.17;21.40;;;;;;;;;;4994243;28;20485;-89
2023/09/18 06:25:27;;;;;;;22.07;20.77;;;;;;;;;;4994814;28;20454;-88
2023/09/18 06:27:55;;;;;;;21.70;20.40;;;;;;;;;;4994325;28;20441;-90
2023/09/18 06:30:22;;;;;;;22.47;21.00;;;;;;;;;;4993871;28;20831;-90
2023/09/18 06:32:49;;;;;;;22.27;20.50;;;;;;;;;;4994308;28;20461;-89
2023/09/18 06:35:17;;;;;;;23.30;21.50;;;;;;;;;;4994793;28;20456;-89
2023/09/18 06:37:45;;;;;;;23.50;22.10;;;;;;;;;;4994140;28;20417;-89
2023/09/18 06:40:12;;;;;;;22.97;21.57;;;;;;;;;;4994406;28;20438;-89
2023/09/18 06:42:39;;;;;;;22.70;21.20;;;;;;;;;;4960393;28;1062748;-89
2023/09/18 06:45:07;;;;;;;22.97;21.40;;;;;;;;;;5014598;28;20185;-88
2023/09/18 06:47:34;;;;;;;21.87;20.57;;;;;;;;;;5014100;28;20488;-89
2023/09/18 06:50:01;;;;;;;22.03;20.73;;;;;;;;;;5014549;28;20449;-88
2023/09/18 06:52:30;;;;;;;24.00;22.40;;;;;;;;;;5014081;28;20460;-89
2023/09/18 06:54:57;;;;;;;22.10;20.80;;;;;;;;;;5013819;28;20818;-89
2023/09/18 06:57:24;;;;;;;23.73;21.73;;;;;;;;;;5007919;28;20539;-89
2023/09/18 06:59:51;;;;;;;22.10;20.80;;;;;;;;;;5012980;28;20856;-89
2023/09/18 07:02:18;;;;;;;22.23;20.80;;;;;;;;;;5013278;28;20488;-90
2023/09/18 07:04:46;;;;;;;22.87;21.57;;;;;;;;;;4994430;28;20477;-89
2023/09/18 07:07:13;;;;;;;21.80;20.50;;;;;;;;;;5004978;28;20451;-83
2023/09/18 07:09:52;;;;;;;23.33;21.70;;;;;;;;;;5014988;28;20406;-90
2023/09/18 07:12:19;;;;;;;22.63;21.33;;;;;;;;;;5014838;28;20476;-89
2023/09/18 07:14:46;;;;;;;22.83;21.30;;;;;;;;;;5014273;28;20516;-89
2023/09/18 07:17:14;;;;;;;22.57;21.20;;;;;;;;;;5014370;28;20459;-90
2023/09/18 07:19:41;;;;;;;23.60;22.00;;;;;;;;;;5014649;28;20787;-89
2023/09/18 07:22:08;;;;;;;22.93;21.43;;;;;;;;;;5014707;28;20492;-89
2023/09/18 07:24:35;;;;;;;22.60;21.20;;;;;;;;;;5015154;28;20461;-88
2023/09/18 07:27:03;;;;;;;22.87;21.40;;;;;;;;;;5009354;28;20465;-88
2023/09/18 07:29:30;;;;;;;22.77;21.47;;;;;;;;;;5009329;28;20453;-88
2023/09/18 07:31:58;;;;;;;22.07;20.47;;;;;;;;;;5014057;28;20476;-88
2023/09/18 07:34:25;;;;;;;22.43;21.03;;;;;;;;;;5015530;28;20502;-87
2023/09/18 07:36:55;;;;;;;22.33;20.97;;;;;;;;;;5014847;28;20415;-87
2023/09/18 07:39:22;;;;;;;21.73;20.40;;;;;;;;;;5017113;28;20483;-88
2023/09/18 07:41:49;;;;;;;21.33;19.90;;;;;;;;;;5016344;28;20495;-87
2023/09/18 07:44:21;;;;;;;21.10;19.70;;;;;;;;;;5016737;28;20436;-87
2023/09/18 07:46:48;;;;;;;20.60;19.40;;;;;;;;;;5015222;28;20436;-87
2023/09/18 07:49:16;;;;;;;20.00;18.80;;;;;;;;;;5013876;28;20452;-81
2023/09/18 07:51:43;;;;;;;21.47;20.10;;;;;;;;;;5014457;28;20464;-80
2023/09/18 07:54:10;;;;;;;20.83;19.43;;;;;;;;;;5014931;28;20481;-81
2023/09/18 07:56:37;;;;;;;20.57;19.17;;;;;;;;;;5014561;28;20440;-81
2023/09/18 07:59:05;;;;;;;19.60;18.40;;;;;;;;;;5015881;28;20483;-81
2023/09/18 08:01:34;;;;;;;21.10;19.63;;;;;;;;;;5012865;28;20487;-81
2023/09/18 08:04:01;;;;;;;20.53;19.03;;;;;;;;;;5015115;28;20516;-83
2023/09/18 08:06:28;;;;;;;20.17;18.77;;;;;;;;;;5013946;28;20447;-80
2023/09/18 08:08:55;;;;;;;20.47;19.10;;;;;;;;;;5015004;28;20449;-80
2023/09/18 08:11:22;;;;;;;20.07;18.77;;;;;;;;;;5014042;28;20467;-80
2023/09/18 08:13:49;;;;;;;19.73;18.53;;;;;;;;;;5016842;28;21135;-79
2023/09/18 08:16:17;;;;;;;20.40;19.00;;;;;;;;;;5014686;28;20853;-81
2023/09/18 08:18:45;;;;;;;19.67;18.37;;;;;;;;;;5013394;28;20452;-80
2023/09/18 08:21:13;;;;;;;20.47;19.13;;;;;;;;;;5016815;28;20552;-80
2023/09/18 08:23:40;;;;;;;20.13;18.40;;;;;;;;;;5015335;28;20543;-81
2023/09/18 08:26:08;;;;;;;20.50;18.87;;;;;;;;;;5016497;28;20448;-80
2023/09/18 08:28:38;;;;;;;20.97;19.47;;;;;;;;;;5018058;28;20454;-81
2023/09/18 08:31:05;;;;;;;19.80;18.60;;;;;;;;;;5018302;28;20441;-85
2023/09/18 08:33:34;;;;;;;20.70;18.97;;;;;;;;;;5017150;28;20889;-84
2023/09/18 08:36:02;;;;;;;20.17;18.90;;;;;;;;;;5017548;28;20471;-81
2023/09/18 08:38:29;;;;;;;18.60;17.60;;;;;;;;;;5019028;28;20457;-87
2023/09/18 08:40:56;;;;;;;20.33;19.07;;;;;;;;;;5017358;28;20452;-81
2023/09/18 08:43:24;;;;;;;20.57;19.07;;;;;;;;;;5017222;28;20500;-81
2023/09/18 08:45:53;;;;;;;19.83;18.63;;;;;;;;;;5017092;28;20479;-81
2023/09/18 08:48:20;;;;;;;19.30;18.10;;;;;;;;;;5017622;28;20937;-80
2023/09/18 08:50:48;;;;;;;20.27;18.73;;;;;;;;;;5017816;28;20452;-80
2023/09/18 08:53:17;;;;;;;20.20;18.90;;;;;;;;;;5018940;28;20831;-86
2023/09/18 08:55:44;;;;;;;20.03;18.63;;;;;;;;;;5017013;28;20468;-81
2023/09/18 08:58:11;;;;;;;20.20;18.90;;;;;;;;;;5015502;28;20806;-78
2023/09/18 09:00:38;;;;;;;20.00;18.60;;;;;;;;;;5016527;28;21114;-79
2023/09/18 09:03:05;;;;;;;20.47;19.03;;;;;;;;;;5016132;28;20497;-78
2023/09/18 09:05:32;;;;;;;21.07;19.53;;;;;;;;;;5015491;28;20530;-80
2023/09/18 09:08:01;;;;;;;21.03;19.53;;;;;;;;;;5015432;28;20452;-86
2023/09/18 09:10:40;;;;;;;20.40;18.93;;;;;;;;;;5020089;28;20482;-87
2023/09/18 09:13:07;;;;;;;19.37;17.93;;;;;;;;;;5020245;28;20464;-87
2023/09/18 09:15:35;;;;;;;19.47;18.23;;;;;;;;;;5019365;28;20452;-87
2023/09/18 09:18:04;;;;;;;20.80;19.40;;;;;;;;;;5018542;28;20445;-87
2023/09/18 09:20:31;;;;;;;20.83;19.43;;;;;;;;;;5019900;28;20508;-86
2023/09/18 09:23:02;;;;;;;20.73;19.30;;;;;;;;;;5021239;28;20515;-86
2023/09/18 09:25:31;;;;;;;20.10;18.70;;;;;;;;;;5020927;28;20440;-83
2023/09/18 09:28:17;;;;;;;20.70;19.20;;;;;;;;;;5015032;28;20531;-86
2023/09/18 09:30:45;;;;;;;19.70;18.60;;;;;;;;;;5000813;28;20441;-87
2023/09/18 09:33:13;;;;;;;20.10;18.73;;;;;;;;;;5000343;28;21021;-86
2023/09/18 09:35:40;;;;;;;21.40;19.90;;;;;;;;;;5000752;28;20516;-85
2023/09/18 09:38:11;;;;;;;20.10;18.70;;;;;;;;;;5001158;28;20453;-86
2023/09/18 09:40:40;;;;;;;20.17;18.87;;;;;;;;;;5001179;28;20446;-86
2023/09/18 09:43:09;;;;;;;19.73;18.63;;;;;;;;;;5001587;28;20516;-86
2023/09/18 09:45:36;;;;;;;21.20;19.57;;;;;;;;;;5001506;28;20450;-85
2023/09/18 09:48:06;;;;;;;20.10;18.90;;;;;;;;;;5000931;28;20449;-86
2023/09/18 09:50:33;;;;;;;20.77;19.30;;;;;;;;;;5001951;28;20460;-86
2023/09/18 09:53:01;;;;;;;20.70;19.33;;;;;;;;;;5000824;28;20502;-86
2023/09/18 09:55:28;;;;;;;21.10;19.70;;;;;;;;;;5004724;28;20455;-86
2023/09/18 09:57:59;;;;;;;20.50;19.10;;;;;;;;;;5020874;28;20755;-86
2023/09/18 10:00:30;;;;;;;20.43;18.80;;;;;;;;;;5020782;28;20441;-86
2023/09/18 10:02:59;;;;;;;19.93;18.73;;;;;;;;;;5020729;28;20563;-86
2023/09/18 10:05:29;;;;;;;20.60;19.07;;;;;;;;;;5021463;28;20456;-86
2023/09/18 10:07:59;;;;;;;20.30;19.10;;;;;;;;;;5020840;28;20455;-86
2023/09/18 10:10:33;;;;;;;21.03;19.57;;;;;;;;;;5021135;28;20851;-86
2023/09/18 10:13:02;;;;;;;20.33;19.03;;;;;;;;;;5021256;28;20465;-85
2023/09/18 10:15:30;;;;;;;18.97;17.83;;;;;;;;;;5021387;28;21040;-86
2023/09/18 10:17:59;;;;;;;21.10;19.47;;;;;;;;;;5020000;28;20454;-86
2023/09/18 10:20:30;;;;;;;21.03;19.80;;;;;;;;;;5021107;28;20482;-86
2023/09/18 10:22:58;;;;;;;20.53;19.33;;;;;;;;;;5019860;28;20488;-86
2023/09/18 10:25:27;;;;;;;20.67;19.47;;;;;;;;;;5020826;28;20460;-86
2023/09/18 10:27:58;;;;;;;21.47;20.10;;;;;;;;;;5020446;28;20475;-86
2023/09/18 10:30:26;;;;;;;20.67;19.57;;;;;;;;;;5020661;28;20445;-86
2023/09/18 10:32:54;;;;;;;20.37;18.97;;;;;;;;;;5020337;28;20495;-86
2023/09/18 10:35:21;;;;;;;20.30;18.90;;;;;;;;;;5020225;28;20438;-86
2023/09/18 10:37:51;;;;;;;20.67;19.37;;;;;;;;;;5019684;28;20448;-87
2023/09/18 10:40:18;;;;;;;21.70;20.40;;;;;;;;;;5019348;28;20479;-87
2023/09/18 10:42:47;;;;;;;21.50;20.20;;;;;;;;;;5019256;28;20488;-86
2023/09/18 10:45:15;;;;;;;21.57;20.17;;;;;;;;;;5016133;28;20527;-85
2023/09/18 10:47:45;;;;;;;21.80;20.40;;;;;;;;;;5019508;28;20499;-86
2023/09/18 10:50:12;;;;;;;21.00;19.90;;;;;;;;;;5019141;28;20558;-86
2023/09/18 10:52:44;;;;;;;22.00;20.70;;;;;;;;;;5018839;28;20465;-86
2023/09/18 10:55:14;;;;;;;21.53;20.13;;;;;;;;;;5019531;28;20478;-85
2023/09/18 10:57:52;;;;;;;22.10;20.80;;;;;;;;;;5018165;28;20463;-78
2023/09/18 11:00:22;;;;;;;21.20;19.90;;;;;;;;;;5017848;28;20456;-86
2023/09/18 11:02:50;;;;;;;21.53;19.80;;;;;;;;;;5020098;28;20562;-84
2023/09/18 11:05:28;;;;;;;20.80;19.40;;;;;;;;;;5019384;28;20464;-85
2023/09/18 11:08:10;;;;;;;21.50;20.03;;;;;;;;;;4999548;28;20469;-85
2023/09/18 11:10:56;;;;;;;20.40;19.20;;;;;;;;;;5006140;28;20448;-86
2023/09/18 11:13:29;;;;;;;21.30;20.00;;;;;;;;;;5020944;28;20456;-85
2023/09/18 11:16:00;;;;;;;21.17;19.90;;;;;;;;;;5013050;28;20474;-86
2023/09/18 11:18:33;;;;;;;21.10;19.50;;;;;;;;;;4999648;28;20555;-86
2023/09/18 11:21:10;;;;;;;20.73;19.23;;;;;;;;;;5011855;28;20433;-86
2023/09/18 11:23:40;;;;;;;20.87;19.50;;;;;;;;;;5018977;28;20483;-86
2023/09/18 11:26:11;;;;;;;21.60;20.00;;;;;;;;;;5015040;28;20940;-88
2023/09/18 11:28:38;;;;;;;21.10;19.80;;;;;;;;;;5008287;28;20997;-87
2023/09/18 11:31:05;;;;;;;21.03;19.60;;;;;;;;;;4996843;28;20416;-87
2023/09/18 11:33:34;;;;;;;21.07;19.50;;;;;;;;;;4995778;28;20473;-87
2023/09/18 11:36:05;;;;;;;19.77;18.57;;;;;;;;;;4996121;28;20457;-87
2023/09/18 11:38:33;;;;;;;21.03;19.73;;;;;;;;;;5005627;28;20477;-87
2023/09/18 11:41:01;;;;;;;20.47;19.27;;;;;;;;;;5016746;28;20460;-87
2023/09/18 11:43:30;;;;;;;20.40;19.10;;;;;;;;;;5015643;28;20483;-87
2023/09/18 11:45:58;;;;;;;21.00;19.80;;;;;;;;;;5005118;28;20455;-87
2023/09/18 11:48:27;;;;;;;20.83;19.63;;;;;;;;;;5018845;28;20459;-86
2023/09/18 11:50:55;;;;;;;20.90;19.60;;;;;;;;;;5019693;28;20433;-86
2023/09/18 11:53:22;;;;;;;22.17;20.43;;;;;;;;;;5020427;28;20460;-87
2023/09/18 11:55:49;;;;;;;20.20;19.00;;;;;;;;;;5019794;28;20444;-86
2023/09/18 11:58:16;;;;;;;20.67;19.47;;;;;;;;;;5020821;28;20437;-88
2023/09/18 12:00:50;;;;;;;21.10;19.80;;;;;;;;;;5019235;28;20960;-87
2023/09/18 12:03:25;;;;;;;20.83;19.43;;;;;;;;;;5020130;28;20833;-87
2023/09/18 12:05:57;;;;;;;21.30;20.10;;;;;;;;;;5019037;28;20786;-87
2023/09/18 12:08:26;;;;;;;21.20;19.90;;;;;;;;;;5019156;28;20498;-88
2023/09/18 12:10:54;;;;;;;20.40;19.20;;;;;;;;;;5019478;28;20954;-87
2023/09/18 12:13:21;;;;;;;21.27;19.77;;;;;;;;;;5019333;28;20477;-87
2023/09/18 12:15:50;;;;;;;21.00;19.80;;;;;;;;;;5020112;28;20439;-87
2023/09/18 12:18:17;;;;;;;20.97;19.50;;;;;;;;;;5020402;28;20552;-87
2023/09/18 12:20:48;;;;;;;22.07;20.63;;;;;;;;;;5020094;28;20501;-87
2023/09/18 12:23:15;;;;;;;21.17;19.77;;;;;;;;;;5019963;28;20487;-87
2023/09/18 12:25:42;;;;;;;20.90;19.70;;;;;;;;;;5020603;28;20459;-87
2023/09/18 12:28:10;;;;;;;20.33;19.20;;;;;;;;;;5019645;28;20460;-87
2023/09/18 12:30:38;;;;;;;21.40;20.00;;;;;;;;;;5019848;28;20517;-87
2023/09/18 12:33:06;;;;;;;21.67;20.30;;;;;;;;;;5019550;28;20476;-87
2023/09/18 12:35:34;;;;;;;20.53;19.33;;;;;;;;;;5011422;28;20934;-87
2023/09/18 12:38:04;;;;;;;20.77;19.57;;;;;;;;;;5005456;28;20489;-85
2023/09/18 12:40:33;;;;;;;20.80;19.50;;;;;;;;;;5000083;28;20446;-87
2023/09/18 12:43:01;;;;;;;20.63;19.33;;;;;;;;;;5014141;28;20496;-87
2023/09/18 12:45:29;;;;;;;20.77;19.37;;;;;;;;;;5019284;28;20491;-87
2023/09/18 12:47:57;;;;;;;20.83;19.33;;;;;;;;;;5018962;28;20464;-87
2023/09/18 12:50:26;;;;;;;21.77;20.37;;;;;;;;;;5018518;28;20471;-87
2023/09/18 12:52:53;;;;;;;21.40;20.00;;;;;;;;;;5018149;28;20455;-87
2023/09/18 12:55:24;;;;;;;20.83;19.53;;;;;;;;;;5014926;28;20449;-87
2023/09/18 12:57:51;;;;;;;21.70;20.30;;;;;;;;;;5007228;28;20528;-88
2023/09/18 13:00:22;;;;;;;20.93;19.73;;;;;;;;;;5004823;28;20425;-87
2023/09/18 13:02:51;;;;;;;21.23;20.03;;;;;;;;;;5002558;28;20470;-87
2023/09/18 13:05:21;;;;;;;21.17;19.97;;;;;;;;;;5018931;28;20515;-87
2023/09/18 13:07:50;;;;;;;19.80;18.67;;;;;;;;;;5011293;28;20469;-87
2023/09/18 13:10:17;;;;;;;20.83;19.63;;;;;;;;;;4999503;28;20458;-87
2023/09/18 13:12:47;;;;;;;20.40;19.23;;;;;;;;;;5008198;28;20464;-87
2023/09/18 13:15:15;;;;;;;20.17;18.87;;;;;;;;;;5017759;28;20453;-87
2023/09/18 13:17:44;;;;;;;21.30;20.00;;;;;;;;;;5008699;28;20532;-80
2023/09/18 13:20:15;;;;;;;20.50;19.30;;;;;;;;;;4996459;28;20460;-81
2023/09/18 13:22:43;;;;;;;21.50;20.20;;;;;;;;;;4997235;28;20476;-80
2023/09/18 13:25:11;;;;;;;22.10;20.90;;;;;;;;;;4997330;28;20460;-81
2023/09/18 13:27:39;;;;;;;21.93;20.43;;;;;;;;;;5007962;28;20502;-82
2023/09/18 13:30:07;;;;;;;21.40;20.10;;;;;;;;;;5016550;28;20456;-81
2023/09/18 13:32:35;;;;;;;21.80;20.30;;;;;;;;;;5017106;28;20476;-84
2023/09/18 13:35:05;;;;;;;22.17;20.83;;;;;;;;;;5018359;28;20451;-81
2023/09/18 13:37:32;;;;;;;20.80;19.57;;;;;;;;;;5017252;28;20540;-82
2023/09/18 13:40:00;;;;;;;21.10;19.80;;;;;;;;;;5018232;28;20433;-82
2023/09/18 13:42:30;;;;;;;21.43;20.07;;;;;;;;;;5017926;28;20545;-82
2023/09/18 13:44:57;;;;;;;21.20;19.80;;;;;;;;;;5017354;28;20504;-88
2023/09/18 13:47:24;;;;;;;21.80;20.57;;;;;;;;;;5016331;28;20445;-89
2023/09/18 13:49:52;;;;;;;21.67;20.47;;;;;;;;;;5016648;28;20472;-86
2023/09/18 13:52:19;;;;;;;21.47;20.00;;;;;;;;;;5018674;28;20485;-88
2023/09/18 13:54:50;;;;;;;21.60;20.20;;;;;;;;;;5016985;28;20444;-87
2023/09/18 13:57:18;;;;;;;21.07;19.87;;;;;;;;;;5016919;28;20421;-88
2023/09/18 13:59:46;;;;;;;21.53;20.13;;;;;;;;;;5017469;28;20511;-88
2023/09/18 14:02:14;;;;;;;21.83;20.23;;;;;;;;;;5017208;28;20469;-88
2023/09/18 14:04:41;;;;;;;21.90;20.30;;;;;;;;;;5016793;28;20493;-88
2023/09/18 14:07:09;;;;;;;20.37;19.17;;;;;;;;;;5017000;28;20434;-87
2023/09/18 14:09:36;;;;;;;21.20;20.00;;;;;;;;;;5016658;28;20456;-87
2023/09/18 14:12:03;;;;;;;22.47;21.17;;;;;;;;;;5017050;28;20465;-89
2023/09/18 14:14:31;;;;;;;21.27;19.90;;;;;;;;;;5017143;28;20456;-87
2023/09/18 14:17:00;;;;;;;21.70;20.40;;;;;;;;;;5016176;28;20945;-88
2023/09/18 14:19:27;;;;;;;21.80;20.50;;;;;;;;;;5016412;28;20447;-87
2023/09/18 14:21:54;;;;;;;21.67;20.37;;;;;;;;;;5016908;28;20987;-86